createdAt,value
2022-08-08T00:01:13.429Z,94695.66
2022-08-08T00:04:03.417Z,94695.31
2022-08-08T00:06:54.645Z,94700.72
2022-08-08T00:09:48.300Z,94697.75
2022-08-08T00:12:26.836Z,94700.31
2022-08-08T00:15:24.188Z,94704.41
2022-08-08T00:18:14.108Z,94700.91
2022-08-08T00:20:54.724Z,94703.63
2022-08-08T00:23:42.734Z,94691.75
2022-08-08T00:26:26.450Z,94695.94
2022-08-08T00:29:07.923Z,94695.84
2022-08-08T00:32:28.647Z,94701.88
2022-08-08T00:35:09.311Z,94707.97
2022-08-08T00:38:01.932Z,94706.47
2022-08-08T00:41:11.863Z,94714.59
2022-08-08T00:43:40.151Z,94711.53
2022-08-08T00:46:32.224Z,94702.75
2022-08-08T00:49:33.057Z,94711.88
2022-08-08T00:52:39.311Z,94705.44
2022-08-08T00:55:52.858Z,94706.63
2022-08-08T00:58:54.397Z,94706.28
2022-08-08T01:01:37.514Z,94704.38
2022-08-08T01:04:43.306Z,94703.50
2022-08-08T01:07:54.089Z,94700.38
2022-08-08T01:10:32.505Z,94697.50
2022-08-08T01:13:43.547Z,94694.34
2022-08-08T01:16:51.659Z,94689.03
2022-08-08T01:20:01.696Z,94694.69
2022-08-08T01:22:58.048Z,94699.56
2022-08-08T01:26:11.419Z,94694.09
2022-08-08T01:28:44.172Z,94694.56
2022-08-08T01:32:14.695Z,94692.50
2022-08-08T01:35:29.818Z,94692.03
2022-08-08T01:38:27.961Z,94693.63
2022-08-08T01:41:15.928Z,94699.97
2022-08-08T01:44:03.477Z,94693.28
2022-08-08T01:47:59.086Z,94700.16
2022-08-08T01:50:20.573Z,94694.88
2022-08-08T01:55:17.324Z,94698.25
2022-08-08T01:56:58.966Z,94692.78
2022-08-08T02:00:01.776Z,94701.06
2022-08-08T02:02:49.605Z,94700.81
2022-08-08T02:05:59.197Z,94700.53
2022-08-08T02:08:41.317Z,94699.88
2022-08-08T02:11:23.453Z,94711.22
2022-08-08T02:14:03.400Z,94713.59
2022-08-08T02:17:20.247Z,94708.97
2022-08-08T02:20:14.763Z,94703.72
2022-08-08T02:22:54.975Z,94705.19
2022-08-08T02:25:46.806Z,94706.66
2022-08-08T02:28:34.907Z,94696.44
2022-08-08T02:31:24.591Z,94699.34
2022-08-08T02:34:33.360Z,94704.50
2022-08-08T02:37:52.013Z,94692.91
2022-08-08T02:40:09.431Z,94690.66
2022-08-08T02:44:34.595Z,94692.69
2022-08-08T02:46:03.020Z,94680.91
2022-08-08T02:48:51.347Z,94690.91
2022-08-08T02:51:55.064Z,94688.31
2022-08-08T02:54:38.898Z,94689.78
2022-08-08T02:57:44.778Z,94687.66
2022-08-08T03:00:50.576Z,94693.03
2022-08-08T03:05:03.997Z,94697.91
2022-08-08T03:07:07.109Z,94701.63
2022-08-08T03:09:59.953Z,94705.22
2022-08-08T03:13:02.606Z,94710.06
2022-08-08T03:15:58.220Z,94702.47
2022-08-08T03:18:45.455Z,94695.38
2022-08-08T03:21:14.672Z,94703.03
2022-08-08T03:23:57.649Z,94687.06
2022-08-08T03:26:32.501Z,94698.06
2022-08-08T03:29:21.045Z,94705.91
2022-08-08T03:32:22.079Z,94704.00
2022-08-08T03:34:56.950Z,94707.59
2022-08-08T03:38:54.275Z,94704.44
2022-08-08T03:40:30.027Z,94712.19
2022-08-08T03:43:17.968Z,94718.38
2022-08-08T03:46:05.443Z,94705.56
2022-08-08T03:49:56.340Z,94712.19
2022-08-08T03:51:50.754Z,94719.16
2022-08-08T03:54:15.433Z,94728.38
2022-08-08T03:58:09.652Z,94723.91
2022-08-08T04:00:02.970Z,94728.09
2022-08-08T04:02:51.594Z,94736.28
2022-08-08T04:05:28.151Z,94721.47
2022-08-08T04:07:57.812Z,94729.44
2022-08-08T04:10:32.353Z,94730.00
2022-08-08T04:13:03.780Z,94736.16
2022-08-08T04:15:54.798Z,94731.09
2022-08-08T04:18:41.895Z,94734.13
2022-08-08T04:21:12.749Z,94736.47
2022-08-08T04:24:05.610Z,94740.97
2022-08-08T04:26:39.933Z,94754.63
2022-08-08T04:29:15.295Z,94741.06
2022-08-08T04:31:58.771Z,94740.75
2022-08-08T04:34:31.720Z,94764.22
2022-08-08T04:37:03.662Z,94767.69
2022-08-08T04:40:03.763Z,94768.09
2022-08-08T04:42:17.903Z,94769.75
2022-08-08T04:44:47.569Z,94771.00
2022-08-08T04:47:16.566Z,94771.59
2022-08-08T04:50:01.084Z,94768.56
2022-08-08T04:52:35.371Z,94770.41
2022-08-08T04:55:07.326Z,94761.69
2022-08-08T04:57:35.176Z,94768.75
2022-08-08T05:00:05.614Z,94760.97
2022-08-08T05:02:32.926Z,94766.94
2022-08-08T05:05:00.756Z,94760.03
2022-08-08T05:07:33.147Z,94768.78
2022-08-08T05:10:12.489Z,94763.91
2022-08-08T05:12:53.670Z,94768.59
2022-08-08T05:16:36.372Z,94761.22
2022-08-08T05:18:15.426Z,94770.19
2022-08-08T05:20:50.251Z,94758.41
2022-08-08T05:23:19.852Z,94754.44
2022-08-08T05:25:49.582Z,94769.19
2022-08-08T05:28:27.980Z,94778.78
2022-08-08T05:31:08.650Z,94774.19
2022-08-08T05:33:52.043Z,94773.47
2022-08-08T05:36:25.472Z,94775.66
2022-08-08T05:38:59.212Z,94773.22
2022-08-08T05:41:27.814Z,94784.53
2022-08-08T05:44:05.700Z,94784.63
2022-08-08T05:46:35.860Z,94785.00
2022-08-08T05:49:10.920Z,94775.59
2022-08-08T05:51:48.188Z,94778.28
2022-08-08T05:54:28.071Z,94775.53
2022-08-08T05:57:15.728Z,94788.34
2022-08-08T05:59:59.552Z,94788.66
2022-08-08T06:03:07.834Z,94789.94
2022-08-08T06:05:59.229Z,94796.63
2022-08-08T06:08:34.631Z,94797.00
2022-08-08T06:11:06.094Z,94789.88
2022-08-08T06:13:36.046Z,94797.47
2022-08-08T06:16:14.610Z,94800.84
2022-08-08T06:18:55.647Z,94800.69
2022-08-08T06:21:28.435Z,94811.47
2022-08-08T06:24:04.727Z,94807.00
2022-08-08T06:26:52.237Z,94806.84
2022-08-08T06:29:56.502Z,94809.44
2022-08-08T06:32:30.768Z,94818.34
2022-08-08T06:36:03.906Z,94811.09
2022-08-08T06:37:59.959Z,94819.56
2022-08-08T06:40:36.592Z,94824.38
2022-08-08T06:43:10.669Z,94820.41
2022-08-08T06:45:58.134Z,94824.41
2022-08-08T06:48:26.712Z,94814.97
2022-08-08T06:50:56.924Z,94826.69
2022-08-08T06:53:25.411Z,94831.59
2022-08-08T06:56:11.623Z,94835.09
2022-08-08T06:58:43.721Z,94831.72
2022-08-08T07:02:17.767Z,94821.13
2022-08-08T07:04:38.922Z,94845.28
2022-08-08T07:07:11.108Z,94835.22
2022-08-08T07:10:00.065Z,94833.00
2022-08-08T07:12:42.977Z,94836.94
2022-08-08T07:15:31.938Z,94840.81
2022-08-08T07:18:35.069Z,94841.78
2022-08-08T07:21:02.041Z,94838.69
2022-08-08T07:24:01.984Z,94851.31
2022-08-08T07:26:38.294Z,94847.38
2022-08-08T07:29:07.906Z,94846.22
2022-08-08T07:31:36.732Z,94844.25
2022-08-08T07:34:08.836Z,94852.09
2022-08-08T07:36:41.929Z,94854.81
2022-08-08T07:39:19.565Z,94848.16
2022-08-08T07:41:58.718Z,94856.78
2022-08-08T07:44:37.723Z,94862.31
2022-08-08T07:47:11.890Z,94857.63
2022-08-08T07:49:41.385Z,94858.81
2022-08-08T07:52:23.082Z,94861.53
2022-08-08T07:55:08.904Z,94858.41
2022-08-08T07:57:48.869Z,94866.63
2022-08-08T08:00:19.184Z,94867.00
2022-08-08T08:03:12.384Z,94860.72
2022-08-08T08:05:50.865Z,94878.72
2022-08-08T08:08:29.248Z,94876.00
2022-08-08T08:10:57.696Z,94876.38
2022-08-08T08:13:42.845Z,94877.56
2022-08-08T08:16:26.888Z,94877.94
2022-08-08T08:19:06.900Z,94878.31
2022-08-08T08:21:58.472Z,94875.97
2022-08-08T08:24:46.331Z,94874.34
2022-08-08T08:27:14.900Z,94870.72
2022-08-08T08:29:51.031Z,94874.69
2022-08-08T08:32:31.724Z,94877.38
2022-08-08T08:35:05.180Z,94877.00
2022-08-08T08:37:40.326Z,94869.56
2022-08-08T08:40:22.554Z,94881.56
2022-08-08T08:42:49.831Z,94875.78
2022-08-08T08:45:22.726Z,94869.75
2022-08-08T08:47:54.570Z,94879.03
2022-08-08T08:50:33.077Z,94880.63
2022-08-08T08:53:56.785Z,94878.41
2022-08-08T08:56:04.250Z,94886.25
2022-08-08T08:58:42.250Z,94888.97
2022-08-08T09:01:16.740Z,94888.81
2022-08-08T09:03:50.630Z,94886.03
2022-08-08T09:06:34.015Z,94876.88
2022-08-08T09:09:26.137Z,94890.63
2022-08-08T09:12:11.503Z,94891.00
2022-08-08T09:14:44.995Z,94884.91
2022-08-08T09:17:18.734Z,94891.53
2022-08-08T09:21:57.827Z,94881.25
2022-08-08T09:22:36.189Z,94884.34
2022-08-08T09:25:09.783Z,94883.22
2022-08-08T09:27:50.816Z,94874.59
2022-08-08T09:30:29.666Z,94888.31
2022-08-08T09:33:54.775Z,94888.06
2022-08-08T09:35:49.761Z,94876.00
2022-08-08T09:38:56.159Z,94893.94
2022-08-08T09:41:54.731Z,94876.31
2022-08-08T09:44:58.069Z,94885.00
2022-08-08T09:48:03.818Z,94875.72
2022-08-08T09:50:28.202Z,94881.41
2022-08-08T09:52:57.633Z,94880.22
2022-08-08T09:55:52.011Z,94884.81
2022-08-08T09:58:27.945Z,94868.38
2022-08-08T10:01:15.350Z,94871.72
2022-08-08T10:04:02.175Z,94865.34
2022-08-08T10:06:32.536Z,94874.94
2022-08-08T10:08:59.872Z,94872.66
2022-08-08T10:12:26.277Z,94865.47
2022-08-08T10:14:34.888Z,94870.53
2022-08-08T10:17:06.253Z,94861.91
2022-08-08T10:19:58.551Z,94864.84
2022-08-08T10:22:29.660Z,94872.03
2022-08-08T10:25:05.274Z,94869.31
2022-08-08T10:27:42.642Z,94866.19
2022-08-08T10:30:23.586Z,94870.00
2022-08-08T10:33:00.376Z,94865.28
2022-08-08T10:36:08.055Z,94855.34
2022-08-08T10:38:20.013Z,94874.63
2022-08-08T10:40:51.928Z,94865.88
2022-08-08T10:43:20.302Z,94873.91
2022-08-08T10:45:55.105Z,94853.81
2022-08-08T10:48:38.895Z,94867.97
2022-08-08T10:51:26.215Z,94860.44
2022-08-08T10:53:57.298Z,94859.06
2022-08-08T10:56:26.963Z,94848.13
2022-08-08T10:58:59.323Z,94862.97
2022-08-08T11:01:33.305Z,94861.81
2022-08-08T11:04:02.813Z,94866.22
2022-08-08T11:06:34.635Z,94848.94
2022-08-08T11:09:15.270Z,94849.09
2022-08-08T11:12:05.252Z,94849.34
2022-08-08T11:14:57.137Z,94846.13
2022-08-08T11:17:58.511Z,94856.09
2022-08-08T11:20:17.830Z,94849.13
2022-08-08T11:22:48.017Z,94842.44
2022-08-08T11:25:16.475Z,94850.97
2022-08-08T11:27:47.230Z,94836.53
2022-08-08T11:30:20.608Z,94831.69
2022-08-08T11:32:56.823Z,94842.53
2022-08-08T11:35:38.480Z,94840.75
2022-08-08T11:38:35.149Z,94823.19
2022-08-08T11:40:56.790Z,94845.00
2022-08-08T11:43:39.318Z,94836.03
2022-08-08T11:46:14.429Z,94840.47
2022-08-08T11:48:47.377Z,94846.66
2022-08-08T11:51:29.847Z,94834.81
2022-08-08T11:54:05.065Z,94829.94
2022-08-08T11:56:56.548Z,94835.31
2022-08-08T12:00:00.422Z,94820.00
2022-08-08T12:02:33.779Z,94827.81
2022-08-08T12:05:12.225Z,94828.59
2022-08-08T12:07:56.642Z,94827.94
2022-08-08T12:10:25.800Z,94826.19
2022-08-08T12:13:06.784Z,94830.09
2022-08-08T12:15:43.000Z,94820.78
2022-08-08T12:18:25.966Z,94826.19
2022-08-08T12:20:56.635Z,94817.66
2022-08-08T12:23:40.166Z,94818.88
2022-08-08T12:26:17.465Z,94822.31
2022-08-08T12:28:57.280Z,94824.91
2022-08-08T12:31:39.252Z,94815.69
2022-08-08T12:34:19.759Z,94815.38
2022-08-08T12:36:49.220Z,94814.31
2022-08-08T12:40:00.457Z,94798.75
2022-08-08T12:42:21.256Z,94812.38
2022-08-08T12:44:50.295Z,94814.66
2022-08-08T12:47:49.603Z,94812.16
2022-08-08T12:50:15.072Z,94808.19
2022-08-08T12:52:42.571Z,94806.03
2022-08-08T12:55:13.565Z,94812.75
2022-08-08T12:57:49.957Z,94810.50
2022-08-08T13:00:34.116Z,94792.34
2022-08-08T13:03:07.467Z,94796.41
2022-08-08T13:06:03.456Z,94793.28
2022-08-08T13:08:22.135Z,94792.31
2022-08-08T13:10:55.445Z,94807.63
2022-08-08T13:13:34.644Z,94810.34
2022-08-08T13:16:37.640Z,94807.09
2022-08-08T13:19:11.730Z,94802.06
2022-08-08T13:21:52.646Z,94791.03
2022-08-08T13:24:42.248Z,94797.69
2022-08-08T13:27:17.070Z,94796.47
2022-08-08T13:30:05.449Z,94799.75
2022-08-08T13:32:39.567Z,94801.97
2022-08-08T13:35:24.230Z,94791.25
2022-08-08T13:38:06.946Z,94783.00
2022-08-08T13:40:35.232Z,94779.38
2022-08-08T13:43:03.950Z,94775.53
2022-08-08T13:45:31.058Z,94782.94
2022-08-08T13:48:03.103Z,94772.06
2022-08-08T13:50:49.387Z,94765.66
2022-08-08T13:53:31.401Z,94774.22
2022-08-08T13:56:05.302Z,94771.47
2022-08-08T13:58:33.132Z,94771.09
2022-08-08T14:01:12.410Z,94765.09
2022-08-08T14:03:54.496Z,94759.78
2022-08-08T14:06:34.378Z,94761.09
2022-08-08T14:09:25.171Z,94763.34
2022-08-08T14:11:50.470Z,94769.25
2022-08-08T14:14:21.265Z,94755.34
2022-08-08T14:16:53.951Z,94752.19
2022-08-08T14:19:57.169Z,94762.53
2022-08-08T14:22:26.268Z,94753.53
2022-08-08T14:25:02.480Z,94763.25
2022-08-08T14:27:40.596Z,94750.97
2022-08-08T14:30:18.407Z,94757.16
2022-08-08T14:32:54.893Z,94756.38
2022-08-08T14:35:35.183Z,94752.66
2022-08-08T14:38:33.243Z,94754.88
2022-08-08T14:40:59.239Z,94747.72
2022-08-08T14:44:02.513Z,94746.88
2022-08-08T14:46:31.093Z,94742.44
2022-08-08T14:49:20.639Z,94743.09
2022-08-08T14:52:07.291Z,94743.53
2022-08-08T14:54:33.999Z,94735.16
2022-08-08T14:57:04.125Z,94738.41
2022-08-08T14:59:43.783Z,94739.72
2022-08-08T15:02:15.390Z,94737.97
2022-08-08T15:04:43.173Z,94740.59
2022-08-08T15:07:22.760Z,94748.19
2022-08-08T15:09:51.701Z,94740.69
2022-08-08T15:12:27.349Z,94741.72
2022-08-08T15:14:55.182Z,94744.84
2022-08-08T15:17:22.831Z,94740.06
2022-08-08T15:19:51.234Z,94747.56
2022-08-08T15:22:23.621Z,94743.53
2022-08-08T15:24:51.415Z,94745.97
2022-08-08T15:27:57.831Z,94737.34
2022-08-08T15:30:12.389Z,94742.22
2022-08-08T15:32:41.651Z,94731.50
2022-08-08T15:35:10.939Z,94736.00
2022-08-08T15:37:38.081Z,94742.50
2022-08-08T15:40:11.366Z,94744.06
2022-08-08T15:42:45.738Z,94744.69
2022-08-08T15:45:16.151Z,94739.69
2022-08-08T15:48:15.085Z,94738.03
2022-08-08T15:50:50.083Z,94739.81
2022-08-08T15:53:17.867Z,94740.38
2022-08-08T15:55:44.929Z,94740.19
2022-08-08T15:58:13.991Z,94736.06
2022-08-08T16:00:40.923Z,94736.78
2022-08-08T16:03:17.086Z,94737.78
2022-08-08T16:05:45.914Z,94732.28
2022-08-08T16:08:28.356Z,94727.97
2022-08-08T16:13:11.271Z,94734.03
2022-08-08T16:13:43.459Z,94744.56
2022-08-08T16:16:17.986Z,94740.72
2022-08-08T16:18:56.205Z,94736.44
2022-08-08T16:21:27.118Z,94728.38
2022-08-08T16:23:55.973Z,94733.94
2022-08-08T16:26:34.460Z,94735.50
2022-08-08T16:29:09.957Z,94735.09
2022-08-08T16:31:49.119Z,94741.78
2022-08-08T16:34:20.704Z,94740.31
2022-08-08T16:36:51.947Z,94742.00
2022-08-08T16:39:54.948Z,94741.84
2022-08-08T16:42:07.740Z,94736.53
2022-08-08T16:44:47.439Z,94737.06
2022-08-08T16:47:41.491Z,94736.41
2022-08-08T16:50:14.460Z,94744.28
2022-08-08T16:55:07.677Z,94734.13
2022-08-08T16:55:55.139Z,94734.97
2022-08-08T16:58:25.608Z,94744.47
2022-08-08T17:00:54.556Z,94740.63
2022-08-08T17:03:25.322Z,94735.28
2022-08-08T17:06:37.448Z,94736.13
2022-08-08T17:08:56.938Z,94742.91
2022-08-08T17:11:28.485Z,94739.78
2022-08-08T17:14:17.713Z,94740.63
2022-08-08T17:16:57.327Z,94746.59
2022-08-08T17:19:29.619Z,94745.81
2022-08-08T17:22:01.003Z,94744.72
2022-08-08T17:24:30.649Z,94750.69
2022-08-08T17:26:58.949Z,94745.72
2022-08-08T17:29:27.257Z,94753.63
2022-08-08T17:31:54.542Z,94755.22
2022-08-08T17:34:53.029Z,94757.28
2022-08-08T17:37:13.637Z,94758.94
2022-08-08T17:40:03.282Z,94766.44
2022-08-08T17:42:28.021Z,94765.78
2022-08-08T17:44:55.408Z,94771.75
2022-08-08T17:47:28.044Z,94766.69
2022-08-08T17:50:02.607Z,94777.34
2022-08-08T17:52:35.300Z,94774.25
2022-08-08T17:56:03.299Z,94777.13
2022-08-08T17:57:52.175Z,94777.97
2022-08-08T18:00:21.444Z,94775.66
2022-08-08T18:03:09.079Z,94772.19
2022-08-08T18:05:48.124Z,94781.25
2022-08-08T18:08:41.131Z,94789.91
2022-08-08T18:11:16.036Z,94791.19
2022-08-08T18:13:47.080Z,94793.97
2022-08-08T18:16:20.344Z,94788.16
2022-08-08T18:18:53.030Z,94786.72
2022-08-08T18:21:35.551Z,94792.25
2022-08-08T18:24:17.640Z,94795.81
2022-08-08T18:26:53.646Z,94795.09
2022-08-08T18:29:30.286Z,94796.34
2022-08-08T18:32:04.914Z,94798.31
2022-08-08T18:34:33.596Z,94799.56
2022-08-08T18:37:06.603Z,94798.81
2022-08-08T18:39:36.283Z,94798.47
2022-08-08T18:42:04.255Z,94813.78
2022-08-08T18:44:33.024Z,94813.78
2022-08-08T18:47:02.262Z,94812.25
2022-08-08T18:49:32.338Z,94811.47
2022-08-08T18:52:07.417Z,94821.28
2022-08-08T18:54:34.779Z,94829.50
2022-08-08T18:57:03.969Z,94829.88
2022-08-08T18:59:40.761Z,94827.97
2022-08-08T19:02:24.863Z,94827.16
2022-08-08T19:04:55.498Z,94834.59
2022-08-08T19:07:23.285Z,94835.00
2022-08-08T19:10:13.684Z,94832.28
2022-08-08T19:12:39.557Z,94840.84
2022-08-08T19:15:10.673Z,94842.44
2022-08-08T19:17:47.516Z,94843.97
2022-08-08T19:20:16.316Z,94850.59
2022-08-08T19:22:44.614Z,94856.09
2022-08-08T19:26:02.268Z,94854.53
2022-08-08T19:27:59.799Z,94851.38
2022-08-08T19:30:27.975Z,94856.84
2022-08-08T19:32:58.169Z,94857.66
2022-08-08T19:35:45.582Z,94861.91
2022-08-08T19:38:17.279Z,94865.78
2022-08-08T19:40:55.864Z,94870.03
2022-08-08T19:43:28.653Z,94877.41
2022-08-08T19:46:00.674Z,94873.03
2022-08-08T19:48:31.199Z,94878.81
2022-08-08T19:51:00.903Z,94872.56
2022-08-08T19:53:51.069Z,94878.75
2022-08-08T19:56:16.499Z,94873.31
2022-08-08T19:59:01.960Z,94882.69
2022-08-08T20:01:50.149Z,94886.59
2022-08-08T20:04:16.335Z,94885.75
2022-08-08T20:06:43.865Z,94889.25
2022-08-08T20:09:15.967Z,94888.84
2022-08-08T20:11:43.984Z,94889.94
2022-08-08T20:14:32.011Z,94888.72
2022-08-08T20:16:59.610Z,94891.38
2022-08-08T20:19:26.752Z,94889.75
2022-08-08T20:22:04.995Z,94894.00
2022-08-08T20:24:39.599Z,94896.28
2022-08-08T20:27:09.252Z,94883.78
2022-08-08T20:29:45.652Z,94886.91
2022-08-08T20:32:26.833Z,94894.66
2022-08-08T20:35:01.571Z,94893.88
2022-08-08T20:37:46.902Z,94896.56
2022-08-08T20:40:18.771Z,94906.59
2022-08-08T20:43:00.754Z,94910.75
2022-08-08T20:45:54.893Z,94905.25
2022-08-08T20:48:15.821Z,94908.72
2022-08-08T20:50:47.886Z,94899.34
2022-08-08T20:53:16.343Z,94909.13
2022-08-08T20:56:01.526Z,94902.19
2022-08-08T20:58:28.310Z,94901.47
2022-08-08T21:00:57.436Z,94897.25
2022-08-08T21:03:24.237Z,94896.50
2022-08-08T21:05:59.450Z,94889.53
2022-08-08T21:08:37.396Z,94893.03
2022-08-08T21:11:13.525Z,94898.47
2022-08-08T21:13:41.978Z,94899.47
2022-08-08T21:16:18.176Z,94905.16
2022-08-08T21:18:58.259Z,94902.31
2022-08-08T21:21:41.405Z,94902.56
2022-08-08T21:24:22.239Z,94905.91
2022-08-08T21:26:56.281Z,94906.97
2022-08-08T21:30:02.681Z,94908.47
2022-08-08T21:32:14.130Z,94905.22
2022-08-08T21:34:51.643Z,94905.91
2022-08-08T21:37:23.656Z,94901.56
2022-08-08T21:40:11.422Z,94903.03
2022-08-08T21:42:39.676Z,94896.34
2022-08-08T21:45:44.300Z,94895.13
2022-08-08T21:48:05.599Z,94904.75
2022-08-08T21:50:37.453Z,94904.22
2022-08-08T21:54:31.285Z,94895.16
2022-08-08T21:56:19.983Z,94911.78
2022-08-08T21:58:38.186Z,94904.72
2022-08-08T22:01:05.223Z,94906.66
2022-08-08T22:03:50.354Z,94899.16
2022-08-08T22:06:31.023Z,94901.44
2022-08-08T22:08:59.683Z,94899.81
2022-08-08T22:11:56.552Z,94907.91
2022-08-08T22:14:16.841Z,94909.78
2022-08-08T22:16:44.468Z,94910.56
2022-08-08T22:19:16.283Z,94914.00
2022-08-08T22:21:43.204Z,94920.56
2022-08-08T22:24:12.243Z,94918.19
2022-08-08T22:27:02.671Z,94913.13
2022-08-08T22:29:59.300Z,94917.22
2022-08-08T22:32:12.745Z,94911.72
2022-08-08T22:34:40.172Z,94920.25
2022-08-08T22:37:15.103Z,94916.28
2022-08-08T22:40:00.147Z,94913.50
2022-08-08T22:42:31.976Z,94912.28
2022-08-08T22:45:01.159Z,94906.44
2022-08-08T22:47:38.436Z,94909.06
2022-08-08T22:50:21.624Z,94915.22
2022-08-08T22:53:00.261Z,94904.69
2022-08-08T22:55:59.042Z,94902.34
2022-08-08T22:58:32.765Z,94908.97
2022-08-08T23:01:00.672Z,94902.28
2022-08-08T23:03:52.761Z,94905.69
2022-08-08T23:06:17.905Z,94904.03
2022-08-08T23:08:55.529Z,94897.03
2022-08-08T23:11:31.371Z,94901.59
2022-08-08T23:14:16.966Z,94901.66
2022-08-08T23:16:54.892Z,94902.34
2022-08-08T23:19:32.107Z,94905.63
2022-08-08T23:22:04.991Z,94902.78
2022-08-08T23:24:36.036Z,94905.81
2022-08-08T23:27:05.531Z,94898.03
2022-08-08T23:29:32.397Z,94896.75
2022-08-08T23:31:59.679Z,94900.88
2022-08-08T23:34:26.456Z,94891.94
2022-08-08T23:36:59.912Z,94895.03
2022-08-08T23:39:32.164Z,94893.03
2022-08-08T23:42:09.062Z,94891.44
2022-08-08T23:44:38.590Z,94895.25
2022-08-08T23:49:02.868Z,94896.69
2022-08-08T23:50:03.047Z,94895.03
2022-08-08T23:52:33.684Z,94891.44
2022-08-08T23:55:14.610Z,94899.94
2022-08-08T23:57:52.192Z,94892.38
